Laughlin Air Force Base
KDLF : now visible

Airfield :











YOU CAN JOIN US ON...

 
LOGIN :

Register | Disclaimer

   EN    FR    IT 

 









Legend :    VFR   Marginal VFR   IFR   Intensive IFR   Very Intensive IFR
Visi :
Ceiling :
>= 8 km
>= 3000ft
5 to 8 km
1000 to 3000 ft
1500m to 5 km
500 to 1000 ft
800 to 1500m
200 to 500 ft
< 800m
< 200 ft
Symbols :   Thunderstorms  Fog  Heavy snow  Heavy precipitations  Wind > 20 kt






- Airport Elevation : 1082 ft


KDLF - Laughlin Air Force Base

CURRENT METAR :
  • 281456Z AUTO 17009KT 10SM BKN220 05/M00 A3051 RMK AO2 SLPNO T00531003 52017 $

EXPIRED METARs :
  • 281356Z AUTO 20003KT 10SM SCT220 03/M02 A3051 RMK AO2 SLPNO T00271020 $
  • 281256Z AUTO 00000KT 10SM CLR 01/M03 A3048 RMK AO2 SLPNO T00091029 $

TAF TAF KDLF
Valid from the 28 at 12:00 until the 29 at 18:00 UTC


281200Z 2812/2918 14008KT 9999 SCT220 QNH3044INS
BECMG 2816/2817 15010G15KT 9999 SCT160 BKN250 QNH3035INS
BECMG 2901/2902 13007KT 9999 SCT250 QNH3036INS
BECMG 2909/2910 15009KT 9999 BKN012 BKN250 QNH3026INS
TEMPO 2912/2914 8000 BR BKN008
BECMG 2916/2917 15012G20KT 9999 BKN015 QNH3021INS TX16/2821Z TN02/2812Z
KZHU FIR / North America



MET'MAP, your aeronautical weather chart ! - Copyright ORBIFLY December 2007 - Disclaimer

ORBIFLY MET'MAP TEAM :

Programming & Development : Alexandra Zaïnal
Concept & original design : Baudouin d'Aumeries
Assistance for programming : Marc-Olivier Méhu
Technical & hardware support : Manuel Goepfert

Contact : metmap@orbifly.com




SOURCES & CREDITS :

   NOAA       Earth
Advisory